»·PEaware :: AAL225 KRNO-KSAN

AAL225 :: KRNO-KSAN

FLIGHT INFORMATION

Flight Status: Arrived
Operator:
American Airlines
More flights by this operator :: More flights under this callsign
Pilot: Michael R. (16974)
Aircraft: BOEING 737-800
(B738)
More flights by this aircraft type
Origin: KRNO Reno/Tahoe Intl
United States
Destination: KSAN San Diego Intl-Lindbergh
United States
More flights between these airports :: More routes between these airports
Route: +COMIX COMIX1
File this flight plan on PilotEdge
Remarks:
Altitude:
(Current/Filed)
37,000ft
Speed:
(Current/Filed)
440kts
Departed: 10-May-18 08:20 PM
Arrived: 10-May-18 09:36 PM
Distance/Time
Traveled:
425nm/1:16
Distance/Time
To Go:
Arrived

Flight Plot

Page will automatically refresh every two minutes.

Flight plan parsing failed; only flown route is shown


Map Options




Map Legend


Flown Route
Filed Route
Departure Airport
Arrival Airport
Navaid (VOR, NDB)
Fix

Horizontal Profiles

Position Reports

Time Latitude Longitude Heading Altitude Ground
Speed
10-May-18 19:47 39.504438 -119.773258 0 4423ft 0kts
10-May-18 19:48 39.504438 -119.773258 0 4423ft 0kts
10-May-18 19:49 39.504438 -119.773258 0 4423ft 0kts
10-May-18 19:50 39.504438 -119.773258 0 4423ft 0kts
10-May-18 19:51 39.504438 -119.773258 0 4423ft 0kts
10-May-18 19:52 39.504438 -119.773258 0 4423ft 0kts
10-May-18 19:53 39.504438 -119.773258 0 4423ft 0kts
10-May-18 19:54 39.504438 -119.773258 0 4423ft 0kts
10-May-18 19:55 39.504438 -119.773258 0 4423ft 0kts
10-May-18 19:56 39.504438 -119.773258 0 4423ft 0kts
10-May-18 19:57 39.504438 -119.773258 0 4423ft 0kts
10-May-18 19:58 39.504438 -119.773258 0 4423ft 0kts
10-May-18 19:59 39.504438 -119.773258 0 4423ft 0kts
10-May-18 20:00 39.504437 -119.773258 0 4423ft 0kts
10-May-18 20:01 39.504437 -119.773258 0 4423ft 0kts
10-May-18 20:02 39.504437 -119.773258 0 4423ft 0kts
10-May-18 20:03 39.504437 -119.773258 0 4423ft 0kts
10-May-18 20:04 39.504437 -119.773258 0 4423ft 0kts
10-May-18 20:05 39.504437 -119.773258 0 4423ft 0kts
10-May-18 20:06 39.504363 -119.773258 0 4423ft 2kts
10-May-18 20:07 39.503793 -119.773403 52 4423ft 2kts
10-May-18 20:08 39.503726 -119.773716 89 4423ft 0kts
10-May-18 20:09 39.503726 -119.773716 89 4423ft 0kts
10-May-18 20:10 39.503726 -119.773716 89 4423ft 0kts
10-May-18 20:11 39.503726 -119.773716 89 4423ft 0kts
10-May-18 20:12 39.503742 -119.772301 90 4423ft 0kts
10-May-18 20:13 39.503742 -119.772301 90 4423ft 0kts
10-May-18 20:14 39.503174 -119.771527 176 4423ft 11kts
10-May-18 20:15 39.497106 -119.771502 179 4423ft 25kts
10-May-18 20:16 39.490507 -119.771494 180 4423ft 21kts
10-May-18 20:17 39.484631 -119.771506 179 4423ft 9kts
10-May-18 20:18 39.483799 -119.770557 92 4423ft 0kts
10-May-18 20:19 39.483796 -119.770483 92 4423ft 2kts
10-May-18 20:20 39.491860 -119.769298 359 4423ft 120kts
10-May-18 20:21 39.543786 -119.768271 357 6658ft 222kts
10-May-18 20:22 39.609331 -119.795370 304 9651ft 275kts
10-May-18 20:23 39.633685 -119.891429 250 12805ft 317kts
10-May-18 20:24 39.555122 -119.930748 177 16316ft 350kts
10-May-18 20:25 39.456124 -119.915098 177 19317ft 370kts
10-May-18 20:26 39.351399 -119.898345 177 21824ft 393kts
10-May-18 20:27 39.240496 -119.880648 177 24084ft 413kts
10-May-18 20:28 39.124521 -119.862168 177 26132ft 431kts
10-May-18 20:29 39.003416 -119.842904 177 27971ft 448kts
10-May-18 20:30 38.882186 -119.823624 177 29661ft 461kts
10-May-18 20:31 38.762903 -119.804630 177 31530ft 461kts
10-May-18 20:32 38.654974 -119.787473 177 33140ft 459kts
10-May-18 20:33 38.528976 -119.767467 177 34770ft 458kts
10-May-18 20:34 38.402854 -119.747468 177 36249ft 457kts
10-May-18 20:35 38.277112 -119.726651 174 37090ft 471kts
10-May-18 20:36 38.168798 -119.701766 172 37096ft 499kts
10-May-18 20:37 38.031439 -119.669978 172 37084ft 505kts
10-May-18 20:38 37.898857 -119.639691 172 37031ft 505kts
10-May-18 20:39 37.776236 -119.607404 161 37028ft 508kts
10-May-18 20:40 37.644668 -119.544128 160 37066ft 509kts
10-May-18 20:41 37.517629 -119.482641 160 37028ft 509kts
10-May-18 20:42 37.386005 -119.419183 160 36979ft 509kts
10-May-18 20:43 37.253778 -119.355685 160 37025ft 509kts
10-May-18 20:44 37.130677 -119.296625 160 36933ft 508kts
10-May-18 20:45 37.001845 -119.234933 161 36919ft 476kts
10-May-18 20:46 36.886130 -119.179776 161 36944ft 475kts
10-May-18 20:47 36.764789 -119.122159 161 36896ft 475kts
10-May-18 20:48 36.641370 -119.063768 161 36896ft 475kts
10-May-18 20:49 36.518455 -119.005808 161 36900ft 473kts
10-May-18 20:50 36.396102 -118.948301 162 36905ft 469kts
10-May-18 20:51 36.279244 -118.893568 162 36911ft 465kts
10-May-18 20:52 36.159194 -118.837551 162 36911ft 461kts
10-May-18 20:53 36.054020 -118.788635 162 36912ft 458kts
10-May-18 20:54 35.935483 -118.733673 162 36914ft 458kts
10-May-18 20:55 35.830524 -118.685171 162 36909ft 457kts
10-May-18 20:56 35.716741 -118.632750 162 36903ft 458kts
10-May-18 20:57 35.597969 -118.578196 162 36947ft 458kts
10-May-18 20:58 35.478753 -118.523607 162 37027ft 458kts
10-May-18 20:59 35.377471 -118.477383 162 37032ft 458kts
10-May-18 21:00 35.278997 -118.432566 162 37033ft 458kts
10-May-18 21:01 35.137922 -118.368600 162 37035ft 475kts
10-May-18 21:02 35.041344 -118.324877 163 37026ft 475kts
10-May-18 21:03 34.924195 -118.272000 162 36950ft 479kts
10-May-18 21:04 34.811685 -118.221350 161 36910ft 480kts
10-May-18 21:05 34.687569 -118.165609 161 36921ft 480kts
10-May-18 21:06 34.562763 -118.109716 161 36922ft 480kts
10-May-18 21:07 34.437560 -118.053888 161 36937ft 481kts
10-May-18 21:08 34.312267 -117.998178 161 36931ft 481kts
10-May-18 21:09 34.187062 -117.942680 161 36837ft 482kts
10-May-18 21:10 34.062203 -117.887522 161 35664ft 483kts
10-May-18 21:11 33.937910 -117.832776 161 32718ft 478kts
10-May-18 21:12 33.821597 -117.781683 161 29923ft 472kts
10-May-18 21:13 33.702083 -117.729311 162 26933ft 449kts
10-May-18 21:14 33.593469 -117.681852 162 24429ft 423kts
10-May-18 21:15 33.489169 -117.636410 162 22132ft 402kts
10-May-18 21:16 33.385327 -117.591325 162 19873ft 391kts
10-May-18 21:17 33.285645 -117.548143 162 17768ft 373kts
10-May-18 21:18 33.190275 -117.506943 162 15752ft 358kts
10-May-18 21:19 33.101232 -117.456697 146 13687ft 360kts
10-May-18 21:20 33.022602 -117.387370 142 11654ft 346kts
10-May-18 21:21 32.962335 -117.310514 112 9712ft 344kts
10-May-18 21:22 32.934842 -117.211817 111 7976ft 286kts
10-May-18 21:23 32.911915 -117.126741 111 6453ft 261kts
10-May-18 21:24 32.890782 -117.050299 111 5219ft 246kts
10-May-18 21:25 32.870196 -116.976805 111 4980ft 232kts
10-May-18 21:26 32.849908 -116.903990 111 4982ft 231kts
10-May-18 21:27 32.826680 -116.834073 148 4974ft 220kts
10-May-18 21:28 32.768411 -116.837424 191 4453ft 213kts
10-May-18 21:29 32.710640 -116.850097 191 3976ft 207kts
10-May-18 21:30 32.675817 -116.896289 250 3993ft 203kts
10-May-18 21:31 32.677851 -116.961255 283 3917ft 201kts
10-May-18 21:32 32.694244 -117.028172 284 2732ft 213kts
10-May-18 21:33 32.709301 -117.089774 284 1396ft 181kts
10-May-18 21:34 32.721702 -117.140115 284 782ft 136kts
10-May-18 21:35 32.731841 -117.182819 283 26ft 126kts
10-May-18 21:36 32.734097 -117.195358 250 25ft 0kts
10-May-18 21:37 32.733289 -117.196021 200 25ft 0kts
10-May-18 21:38 32.733290 -117.196021 199 25ft 0kts
10-May-18 21:39 32.733290 -117.196021 199 25ft 0kts
10-May-18 21:40 32.733290 -117.196021 199 25ft 0kts
10-May-18 21:41 32.733290 -117.196021 199 25ft 0kts
10-May-18 21:42 32.733290 -117.196021 199 25ft 0kts
10-May-18 21:43 32.733290 -117.196021 199 25ft 0kts
10-May-18 21:44 32.733290 -117.196021 199 25ft 0kts
10-May-18 21:45 32.733290 -117.196021 199 25ft 0kts
10-May-18 21:46 32.733290 -117.196021 199 25ft 0kts
10-May-18 21:47 32.733290 -117.196021 199 25ft 0kts
10-May-18 21:48 32.733290 -117.196021 199 25ft 0kts
10-May-18 21:49 32.733290 -117.196021 199 25ft 0kts
10-May-18 21:50 32.733290 -117.196021 199 25ft 0kts

Navigation Log

Ident Type
Flight plan parsing failed, navigation log unavailable